sensor_id;sensor_type;location;lat;lon;timestamp;P1;durP1;ratioP1;P2;durP2;ratioP2
562;SDS011;266;49.514;8.294;2024-01-30T00:00:56;16.17;;;14.23;;
562;SDS011;266;49.514;8.294;2024-01-30T00:03:25;19.60;;;14.87;;
562;SDS011;266;49.514;8.294;2024-01-30T00:05:53;16.23;;;14.57;;
562;SDS011;266;49.514;8.294;2024-01-30T00:08:26;17.70;;;14.00;;
562;SDS011;266;49.514;8.294;2024-01-30T00:10:54;16.50;;;13.43;;
562;SDS011;266;49.514;8.294;2024-01-30T00:13:22;15.53;;;13.90;;
562;SDS011;266;49.514;8.294;2024-01-30T00:15:51;13.77;;;12.33;;
562;SDS011;266;49.514;8.294;2024-01-30T00:18:20;15.57;;;13.90;;
562;SDS011;266;49.514;8.294;2024-01-30T00:20:48;18.33;;;14.50;;
562;SDS011;266;49.514;8.294;2024-01-30T00:23:16;15.43;;;13.93;;
562;SDS011;266;49.514;8.294;2024-01-30T00:25:45;16.83;;;14.80;;
562;SDS011;266;49.514;8.294;2024-01-30T00:28:13;19.17;;;15.20;;
562;SDS011;266;49.514;8.294;2024-01-30T00:30:41;17.00;;;14.77;;
562;SDS011;266;49.514;8.294;2024-01-30T00:33:09;16.57;;;13.00;;
562;SDS011;266;49.514;8.294;2024-01-30T00:35:38;14.40;;;12.97;;
562;SDS011;266;49.514;8.294;2024-01-30T00:38:06;18.20;;;13.87;;
562;SDS011;266;49.514;8.294;2024-01-30T00:40:34;17.47;;;13.43;;
562;SDS011;266;49.514;8.294;2024-01-30T00:43:03;14.90;;;13.40;;
562;SDS011;266;49.514;8.294;2024-01-30T00:45:31;16.17;;;13.50;;
562;SDS011;266;49.514;8.294;2024-01-30T00:48:00;20.07;;;13.73;;
562;SDS011;266;49.514;8.294;2024-01-30T00:50:28;19.00;;;14.07;;
562;SDS011;266;49.514;8.294;2024-01-30T00:52:56;15.13;;;13.53;;
562;SDS011;266;49.514;8.294;2024-01-30T00:55:24;16.43;;;14.60;;
562;SDS011;266;49.514;8.294;2024-01-30T00:57:52;17.17;;;14.13;;
562;SDS011;266;49.514;8.294;2024-01-30T01:00:21;15.17;;;13.67;;
562;SDS011;266;49.514;8.294;2024-01-30T01:02:55;17.40;;;15.17;;
562;SDS011;266;49.514;8.294;2024-01-30T01:05:23;16.50;;;14.50;;
562;SDS011;266;49.514;8.294;2024-01-30T01:07:50;16.87;;;14.20;;
562;SDS011;266;49.514;8.294;2024-01-30T01:10:18;16.30;;;14.60;;
562;SDS011;266;49.514;8.294;2024-01-30T01:12:48;18.50;;;16.53;;
562;SDS011;266;49.514;8.294;2024-01-30T01:15:16;23.47;;;18.83;;
562;SDS011;266;49.514;8.294;2024-01-30T01:17:45;22.37;;;16.60;;
562;SDS011;266;49.514;8.294;2024-01-30T01:20:13;19.20;;;16.67;;
562;SDS011;266;49.514;8.294;2024-01-30T01:22:42;19.47;;;15.73;;
562;SDS011;266;49.514;8.294;2024-01-30T01:25:10;22.80;;;17.20;;
562;SDS011;266;49.514;8.294;2024-01-30T01:27:38;17.40;;;14.43;;
562;SDS011;266;49.514;8.294;2024-01-30T01:30:08;19.37;;;15.67;;
562;SDS011;266;49.514;8.294;2024-01-30T01:32:38;20.03;;;15.83;;
562;SDS011;266;49.514;8.294;2024-01-30T01:35:13;15.63;;;14.13;;
562;SDS011;266;49.514;8.294;2024-01-30T01:37:41;17.80;;;14.90;;
562;SDS011;266;49.514;8.294;2024-01-30T01:40:09;20.13;;;16.30;;
562;SDS011;266;49.514;8.294;2024-01-30T01:42:37;17.30;;;15.20;;
562;SDS011;266;49.514;8.294;2024-01-30T01:45:05;17.57;;;14.20;;
562;SDS011;266;49.514;8.294;2024-01-30T01:47:34;20.70;;;14.40;;
562;SDS011;266;49.514;8.294;2024-01-30T01:50:02;17.93;;;15.97;;
562;SDS011;266;49.514;8.294;2024-01-30T01:52:32;18.43;;;16.43;;
562;SDS011;266;49.514;8.294;2024-01-30T01:55:00;15.70;;;14.10;;
562;SDS011;266;49.514;8.294;2024-01-30T01:57:28;15.80;;;14.20;;
562;SDS011;266;49.514;8.294;2024-01-30T01:59:56;14.23;;;12.77;;
562;SDS011;266;49.514;8.294;2024-01-30T02:02:24;16.73;;;13.90;;
562;SDS011;266;49.514;8.294;2024-01-30T02:04:54;15.80;;;13.93;;
562;SDS011;266;49.514;8.294;2024-01-30T02:07:22;15.80;;;13.20;;
562;SDS011;266;49.514;8.294;2024-01-30T02:09:51;15.53;;;13.90;;
562;SDS011;266;49.514;8.294;2024-01-30T02:12:19;13.33;;;12.07;;
562;SDS011;266;49.514;8.294;2024-01-30T02:14:48;13.13;;;11.83;;
562;SDS011;266;49.514;8.294;2024-01-30T02:17:16;13.27;;;11.67;;
562;SDS011;266;49.514;8.294;2024-01-30T02:19:44;12.00;;;10.90;;
562;SDS011;266;49.514;8.294;2024-01-30T02:22:14;14.70;;;13.20;;
562;SDS011;266;49.514;8.294;2024-01-30T02:24:42;17.47;;;13.03;;
562;SDS011;266;49.514;8.294;2024-01-30T02:27:10;16.00;;;14.20;;
562;SDS011;266;49.514;8.294;2024-01-30T02:29:38;16.30;;;13.90;;
562;SDS011;266;49.514;8.294;2024-01-30T02:32:06;13.93;;;12.50;;
562;SDS011;266;49.514;8.294;2024-01-30T02:34:34;14.77;;;13.27;;
562;SDS011;266;49.514;8.294;2024-01-30T02:37:02;13.50;;;12.13;;
562;SDS011;266;49.514;8.294;2024-01-30T02:39:32;14.87;;;13.37;;
562;SDS011;266;49.514;8.294;2024-01-30T02:42:00;15.43;;;13.47;;
562;SDS011;266;49.514;8.294;2024-01-30T02:44:28;15.37;;;13.90;;
562;SDS011;266;49.514;8.294;2024-01-30T02:46:56;13.13;;;11.90;;
562;SDS011;266;49.514;8.294;2024-01-30T02:49:23;16.70;;;13.80;;
562;SDS011;266;49.514;8.294;2024-01-30T02:51:53;18.80;;;14.17;;
562;SDS011;266;49.514;8.294;2024-01-30T02:54:22;17.67;;;14.20;;
562;SDS011;266;49.514;8.294;2024-01-30T02:56:51;15.13;;;13.60;;
562;SDS011;266;49.514;8.294;2024-01-30T02:59:19;13.87;;;11.50;;
562;SDS011;266;49.514;8.294;2024-01-30T03:01:47;14.60;;;13.03;;
562;SDS011;266;49.514;8.294;2024-01-30T03:04:15;14.87;;;13.20;;
562;SDS011;266;49.514;8.294;2024-01-30T03:06:47;14.10;;;12.67;;
562;SDS011;266;49.514;8.294;2024-01-30T03:09:16;13.70;;;12.50;;
562;SDS011;266;49.514;8.294;2024-01-30T03:11:44;17.43;;;14.40;;
562;SDS011;266;49.514;8.294;2024-01-30T03:14:13;13.70;;;12.30;;
562;SDS011;266;49.514;8.294;2024-01-30T03:16:41;14.47;;;12.60;;
562;SDS011;266;49.514;8.294;2024-01-30T03:19:09;16.53;;;12.70;;
562;SDS011;266;49.514;8.294;2024-01-30T03:21:37;14.50;;;13.10;;
562;SDS011;266;49.514;8.294;2024-01-30T03:24:06;12.53;;;11.33;;
562;SDS011;266;49.514;8.294;2024-01-30T03:26:34;15.00;;;13.57;;
562;SDS011;266;49.514;8.294;2024-01-30T03:29:02;12.93;;;11.63;;
562;SDS011;266;49.514;8.294;2024-01-30T03:31:31;12.47;;;11.10;;
562;SDS011;266;49.514;8.294;2024-01-30T03:33:59;14.97;;;12.03;;
562;SDS011;266;49.514;8.294;2024-01-30T03:36:28;16.43;;;13.10;;
562;SDS011;266;49.514;8.294;2024-01-30T03:38:59;12.30;;;11.00;;
562;SDS011;266;49.514;8.294;2024-01-30T03:41:27;13.83;;;12.33;;
562;SDS011;266;49.514;8.294;2024-01-30T03:43:54;12.57;;;11.33;;
562;SDS011;266;49.514;8.294;2024-01-30T03:46:22;13.20;;;11.80;;
562;SDS011;266;49.514;8.294;2024-01-30T03:48:52;12.90;;;11.50;;
562;SDS011;266;49.514;8.294;2024-01-30T03:51:20;13.13;;;10.33;;
562;SDS011;266;49.514;8.294;2024-01-30T03:53:48;11.83;;;10.47;;
562;SDS011;266;49.514;8.294;2024-01-30T03:56:16;11.87;;;10.67;;
562;SDS011;266;49.514;8.294;2024-01-30T03:58:44;13.33;;;10.87;;
562;SDS011;266;49.514;8.294;2024-01-30T04:01:13;13.40;;;11.97;;
562;SDS011;266;49.514;8.294;2024-01-30T04:03:41;13.27;;;11.27;;
562;SDS011;266;49.514;8.294;2024-01-30T04:06:12;12.27;;;10.97;;
562;SDS011;266;49.514;8.294;2024-01-30T04:08:40;13.07;;;11.70;;
562;SDS011;266;49.514;8.294;2024-01-30T04:11:08;10.83;;;9.73;;
562;SDS011;266;49.514;8.294;2024-01-30T04:13:36;13.73;;;12.33;;
562;SDS011;266;49.514;8.294;2024-01-30T04:16:04;13.27;;;11.10;;
562;SDS011;266;49.514;8.294;2024-01-30T04:18:33;12.87;;;10.07;;
562;SDS011;266;49.514;8.294;2024-01-30T04:21:01;11.80;;;10.27;;
562;SDS011;266;49.514;8.294;2024-01-30T04:23:30;11.63;;;10.43;;
562;SDS011;266;49.514;8.294;2024-01-30T04:25:58;13.40;;;10.80;;
562;SDS011;266;49.514;8.294;2024-01-30T04:28:26;13.47;;;12.10;;
562;SDS011;266;49.514;8.294;2024-01-30T04:30:54;13.50;;;10.67;;
562;SDS011;266;49.514;8.294;2024-01-30T04:33:22;11.73;;;10.53;;
562;SDS011;266;49.514;8.294;2024-01-30T04:35:50;13.07;;;10.43;;
562;SDS011;266;49.514;8.294;2024-01-30T04:38:18;11.80;;;10.60;;
562;SDS011;266;49.514;8.294;2024-01-30T04:40:48;11.27;;;10.17;;
562;SDS011;266;49.514;8.294;2024-01-30T04:43:16;10.50;;;9.53;;
562;SDS011;266;49.514;8.294;2024-01-30T04:45:45;12.57;;;11.27;;
562;SDS011;266;49.514;8.294;2024-01-30T04:48:13;14.40;;;11.33;;
562;SDS011;266;49.514;8.294;2024-01-30T04:50:41;12.10;;;11.00;;
562;SDS011;266;49.514;8.294;2024-01-30T04:53:09;12.40;;;11.10;;
562;SDS011;266;49.514;8.294;2024-01-30T04:55:37;13.27;;;10.87;;
562;SDS011;266;49.514;8.294;2024-01-30T04:58:06;13.70;;;11.57;;
562;SDS011;266;49.514;8.294;2024-01-30T05:00:34;13.20;;;11.80;;
562;SDS011;266;49.514;8.294;2024-01-30T05:03:02;15.67;;;13.90;;
562;SDS011;266;49.514;8.294;2024-01-30T05:05:31;14.70;;;12.73;;
562;SDS011;266;49.514;8.294;2024-01-30T05:07:59;12.73;;;11.40;;
562;SDS011;266;49.514;8.294;2024-01-30T05:10:27;13.27;;;11.97;;
562;SDS011;266;49.514;8.294;2024-01-30T05:12:56;14.80;;;12.10;;
562;SDS011;266;49.514;8.294;2024-01-30T05:15:26;13.43;;;11.83;;
562;SDS011;266;49.514;8.294;2024-01-30T05:17:54;11.67;;;10.33;;
562;SDS011;266;49.514;8.294;2024-01-30T05:20:21;13.70;;;11.70;;
562;SDS011;266;49.514;8.294;2024-01-30T05:22:49;12.83;;;11.57;;
562;SDS011;266;49.514;8.294;2024-01-30T05:25:18;15.37;;;11.37;;
562;SDS011;266;49.514;8.294;2024-01-30T05:27:47;13.57;;;12.27;;
562;SDS011;266;49.514;8.294;2024-01-30T05:30:15;12.90;;;11.60;;
562;SDS011;266;49.514;8.294;2024-01-30T05:32:44;12.03;;;10.73;;
562;SDS011;266;49.514;8.294;2024-01-30T05:35:12;13.57;;;11.97;;
562;SDS011;266;49.514;8.294;2024-01-30T05:37:41;16.53;;;12.97;;
562;SDS011;266;49.514;8.294;2024-01-30T05:40:09;14.10;;;12.80;;
562;SDS011;266;49.514;8.294;2024-01-30T05:42:44;14.23;;;12.73;;
562;SDS011;266;49.514;8.294;2024-01-30T05:45:12;14.77;;;12.50;;
562;SDS011;266;49.514;8.294;2024-01-30T05:47:40;14.53;;;11.40;;
562;SDS011;266;49.514;8.294;2024-01-30T05:50:09;14.57;;;12.90;;
562;SDS011;266;49.514;8.294;2024-01-30T05:52:37;14.73;;;12.73;;
562;SDS011;266;49.514;8.294;2024-01-30T05:55:06;14.13;;;12.27;;
562;SDS011;266;49.514;8.294;2024-01-30T05:57:35;12.27;;;11.17;;
562;SDS011;266;49.514;8.294;2024-01-30T06:00:04;14.40;;;12.57;;
562;SDS011;266;49.514;8.294;2024-01-30T06:02:33;11.70;;;10.57;;
562;SDS011;266;49.514;8.294;2024-01-30T06:05:01;15.10;;;11.80;;
562;SDS011;266;49.514;8.294;2024-01-30T06:07:31;12.70;;;11.50;;
562;SDS011;266;49.514;8.294;2024-01-30T06:10:02;12.43;;;11.30;;
562;SDS011;266;49.514;8.294;2024-01-30T06:12:31;12.17;;;10.97;;
562;SDS011;266;49.514;8.294;2024-01-30T06:14:59;14.73;;;11.93;;
562;SDS011;266;49.514;8.294;2024-01-30T06:17:27;12.87;;;11.53;;
562;SDS011;266;49.514;8.294;2024-01-30T06:19:56;12.40;;;11.10;;
562;SDS011;266;49.514;8.294;2024-01-30T06:22:24;11.73;;;10.53;;
562;SDS011;266;49.514;8.294;2024-01-30T06:24:53;11.47;;;10.30;;
562;SDS011;266;49.514;8.294;2024-01-30T06:27:21;12.30;;;11.00;;
562;SDS011;266;49.514;8.294;2024-01-30T06:29:49;12.67;;;11.00;;
562;SDS011;266;49.514;8.294;2024-01-30T06:32:17;11.70;;;10.50;;
562;SDS011;266;49.514;8.294;2024-01-30T06:34:45;12.50;;;11.23;;
562;SDS011;266;49.514;8.294;2024-01-30T06:37:13;12.00;;;10.70;;
562;SDS011;266;49.514;8.294;2024-01-30T06:39:41;12.33;;;11.13;;
562;SDS011;266;49.514;8.294;2024-01-30T06:42:11;15.00;;;11.50;;
562;SDS011;266;49.514;8.294;2024-01-30T06:44:40;11.73;;;10.50;;
562;SDS011;266;49.514;8.294;2024-01-30T06:47:08;13.00;;;10.77;;
562;SDS011;266;49.514;8.294;2024-01-30T06:49:36;12.80;;;10.17;;
562;SDS011;266;49.514;8.294;2024-01-30T06:52:05;13.20;;;11.80;;
562;SDS011;266;49.514;8.294;2024-01-30T06:54:33;19.60;;;10.57;;
562;SDS011;266;49.514;8.294;2024-01-30T06:57:01;11.93;;;10.43;;
562;SDS011;266;49.514;8.294;2024-01-30T06:59:31;17.63;;;11.50;;
562;SDS011;266;49.514;8.294;2024-01-30T07:01:59;18.30;;;11.40;;
562;SDS011;266;49.514;8.294;2024-01-30T07:04:27;12.23;;;10.73;;
562;SDS011;266;49.514;8.294;2024-01-30T07:06:57;10.83;;;9.73;;
562;SDS011;266;49.514;8.294;2024-01-30T07:09:25;14.00;;;12.23;;
562;SDS011;266;49.514;8.294;2024-01-30T07:11:53;11.23;;;10.17;;
562;SDS011;266;49.514;8.294;2024-01-30T07:14:21;12.90;;;11.60;;
562;SDS011;266;49.514;8.294;2024-01-30T07:16:52;14.93;;;12.00;;
562;SDS011;266;49.514;8.294;2024-01-30T07:19:20;11.63;;;10.40;;
562;SDS011;266;49.514;8.294;2024-01-30T07:21:48;11.60;;;9.60;;
562;SDS011;266;49.514;8.294;2024-01-30T07:24:16;13.53;;;10.63;;
562;SDS011;266;49.514;8.294;2024-01-30T07:26:44;11.03;;;9.90;;
562;SDS011;266;49.514;8.294;2024-01-30T07:29:12;11.10;;;9.87;;
562;SDS011;266;49.514;8.294;2024-01-30T07:31:41;11.07;;;9.63;;
562;SDS011;266;49.514;8.294;2024-01-30T07:34:10;15.57;;;12.17;;
562;SDS011;266;49.514;8.294;2024-01-30T07:36:39;12.00;;;10.53;;
562;SDS011;266;49.514;8.294;2024-01-30T07:39:07;11.57;;;10.43;;
562;SDS011;266;49.514;8.294;2024-01-30T07:41:36;11.03;;;9.93;;
562;SDS011;266;49.514;8.294;2024-01-30T07:44:04;14.83;;;11.27;;
562;SDS011;266;49.514;8.294;2024-01-30T07:46:32;13.20;;;11.03;;
562;SDS011;266;49.514;8.294;2024-01-30T07:49:00;11.60;;;10.40;;
562;SDS011;266;49.514;8.294;2024-01-30T07:51:29;13.93;;;11.10;;
562;SDS011;266;49.514;8.294;2024-01-30T07:53:59;14.63;;;10.20;;
562;SDS011;266;49.514;8.294;2024-01-30T07:56:27;11.83;;;9.67;;
562;SDS011;266;49.514;8.294;2024-01-30T07:58:55;13.53;;;12.23;;
562;SDS011;266;49.514;8.294;2024-01-30T08:01:23;13.37;;;10.93;;
562;SDS011;266;49.514;8.294;2024-01-30T08:03:51;14.50;;;13.17;;
562;SDS011;266;49.514;8.294;2024-01-30T08:06:19;14.67;;;13.13;;
562;SDS011;266;49.514;8.294;2024-01-30T08:08:48;15.50;;;14.00;;
562;SDS011;266;49.514;8.294;2024-01-30T08:11:19;13.30;;;11.47;;
562;SDS011;266;49.514;8.294;2024-01-30T08:13:51;18.00;;;14.93;;
562;SDS011;266;49.514;8.294;2024-01-30T08:16:19;17.20;;;13.77;;
562;SDS011;266;49.514;8.294;2024-01-30T08:18:47;15.07;;;13.03;;
562;SDS011;266;49.514;8.294;2024-01-30T08:21:15;13.60;;;11.60;;
562;SDS011;266;49.514;8.294;2024-01-30T08:23:43;20.53;;;12.70;;
562;SDS011;266;49.514;8.294;2024-01-30T08:26:13;13.60;;;12.30;;
562;SDS011;266;49.514;8.294;2024-01-30T08:28:41;12.83;;;11.53;;
562;SDS011;266;49.514;8.294;2024-01-30T08:31:10;14.10;;;12.70;;
562;SDS011;266;49.514;8.294;2024-01-30T08:33:38;16.33;;;11.50;;
562;SDS011;266;49.514;8.294;2024-01-30T08:36:09;13.73;;;12.30;;
562;SDS011;266;49.514;8.294;2024-01-30T08:38:37;14.00;;;12.30;;
562;SDS011;266;49.514;8.294;2024-01-30T08:41:05;14.10;;;12.60;;
562;SDS011;266;49.514;8.294;2024-01-30T08:43:35;12.10;;;10.90;;
562;SDS011;266;49.514;8.294;2024-01-30T08:46:04;12.53;;;10.10;;
562;SDS011;266;49.514;8.294;2024-01-30T08:48:32;12.73;;;11.40;;
562;SDS011;266;49.514;8.294;2024-01-30T08:51:00;11.37;;;10.27;;
562;SDS011;266;49.514;8.294;2024-01-30T08:53:28;10.73;;;9.70;;
562;SDS011;266;49.514;8.294;2024-01-30T08:55:56;11.47;;;10.23;;
562;SDS011;266;49.514;8.294;2024-01-30T08:58:25;11.50;;;10.30;;
562;SDS011;266;49.514;8.294;2024-01-30T09:00:54;13.93;;;10.23;;
562;SDS011;266;49.514;8.294;2024-01-30T09:03:23;11.53;;;10.37;;
562;SDS011;266;49.514;8.294;2024-01-30T09:05:51;15.43;;;10.90;;
562;SDS011;266;49.514;8.294;2024-01-30T09:08:19;11.97;;;10.77;;
562;SDS011;266;49.514;8.294;2024-01-30T09:10:47;11.50;;;10.33;;
562;SDS011;266;49.514;8.294;2024-01-30T09:13:16;11.67;;;10.53;;
562;SDS011;266;49.514;8.294;2024-01-30T09:15:44;11.70;;;10.47;;
562;SDS011;266;49.514;8.294;2024-01-30T09:18:13;12.17;;;10.13;;
562;SDS011;266;49.514;8.294;2024-01-30T09:20:41;16.63;;;9.73;;
562;SDS011;266;49.514;8.294;2024-01-30T09:23:09;11.97;;;10.87;;
562;SDS011;266;49.514;8.294;2024-01-30T09:25:37;12.40;;;10.80;;
562;SDS011;266;49.514;8.294;2024-01-30T09:28:05;11.63;;;10.40;;
562;SDS011;266;49.514;8.294;2024-01-30T09:30:34;11.67;;;10.40;;
562;SDS011;266;49.514;8.294;2024-01-30T09:33:02;17.33;;;11.20;;
562;SDS011;266;49.514;8.294;2024-01-30T09:35:31;14.73;;;11.87;;
562;SDS011;266;49.514;8.294;2024-01-30T09:38:00;14.00;;;12.00;;
562;SDS011;266;49.514;8.294;2024-01-30T09:40:28;20.67;;;10.90;;
562;SDS011;266;49.514;8.294;2024-01-30T09:42:56;13.17;;;10.93;;
562;SDS011;266;49.514;8.294;2024-01-30T09:45:27;18.13;;;12.50;;
562;SDS011;266;49.514;8.294;2024-01-30T09:47:55;11.93;;;9.90;;
562;SDS011;266;49.514;8.294;2024-01-30T09:50:26;13.30;;;11.53;;
562;SDS011;266;49.514;8.294;2024-01-30T09:52:57;11.60;;;10.37;;
562;SDS011;266;49.514;8.294;2024-01-30T09:55:26;10.57;;;9.57;;
562;SDS011;266;49.514;8.294;2024-01-30T09:57:55;10.30;;;9.30;;
562;SDS011;266;49.514;8.294;2024-01-30T10:00:23;11.00;;;9.90;;
562;SDS011;266;49.514;8.294;2024-01-30T10:02:53;12.47;;;11.17;;
562;SDS011;266;49.514;8.294;2024-01-30T10:05:22;11.30;;;9.80;;
562;SDS011;266;49.514;8.294;2024-01-30T10:07:56;15.17;;;12.37;;
562;SDS011;266;49.514;8.294;2024-01-30T10:10:25;12.73;;;11.53;;
562;SDS011;266;49.514;8.294;2024-01-30T10:12:54;12.00;;;10.70;;
562;SDS011;266;49.514;8.294;2024-01-30T10:15:22;11.33;;;10.13;;
562;SDS011;266;49.514;8.294;2024-01-30T10:17:51;12.07;;;10.77;;
562;SDS011;266;49.514;8.294;2024-01-30T10:20:19;11.83;;;10.70;;
562;SDS011;266;49.514;8.294;2024-01-30T10:22:48;12.30;;;11.00;;
562;SDS011;266;49.514;8.294;2024-01-30T10:25:18;12.63;;;10.77;;
562;SDS011;266;49.514;8.294;2024-01-30T10:27:52;14.73;;;11.87;;
562;SDS011;266;49.514;8.294;2024-01-30T10:30:21;12.33;;;11.03;;
562;SDS011;266;49.514;8.294;2024-01-30T10:32:50;16.50;;;10.67;;
562;SDS011;266;49.514;8.294;2024-01-30T10:35:19;12.47;;;11.30;;
562;SDS011;266;49.514;8.294;2024-01-30T10:37:47;13.03;;;11.57;;
562;SDS011;266;49.514;8.294;2024-01-30T10:40:17;11.67;;;9.30;;
562;SDS011;266;49.514;8.294;2024-01-30T10:42:49;13.40;;;12.10;;
562;SDS011;266;49.514;8.294;2024-01-30T10:45:21;12.97;;;11.57;;
562;SDS011;266;49.514;8.294;2024-01-30T10:47:50;13.13;;;11.23;;
562;SDS011;266;49.514;8.294;2024-01-30T10:50:22;12.87;;;11.33;;
562;SDS011;266;49.514;8.294;2024-01-30T10:52:53;14.03;;;12.03;;
562;SDS011;266;49.514;8.294;2024-01-30T10:55:23;12.57;;;11.23;;
562;SDS011;266;49.514;8.294;2024-01-30T10:57:54;11.93;;;10.70;;
562;SDS011;266;49.514;8.294;2024-01-30T11:00:22;12.37;;;11.17;;
562;SDS011;266;49.514;8.294;2024-01-30T11:02:52;16.60;;;11.93;;
562;SDS011;266;49.514;8.294;2024-01-30T11:05:24;14.07;;;12.10;;
562;SDS011;266;49.514;8.294;2024-01-30T11:07:59;13.40;;;12.00;;
562;SDS011;266;49.514;8.294;2024-01-30T11:10:45;12.40;;;11.30;;
562;SDS011;266;49.514;8.294;2024-01-30T11:13:13;13.17;;;11.97;;
562;SDS011;266;49.514;8.294;2024-01-30T11:15:42;14.53;;;11.50;;
562;SDS011;266;49.514;8.294;2024-01-30T11:18:10;11.80;;;10.03;;
562;SDS011;266;49.514;8.294;2024-01-30T11:20:39;12.93;;;11.40;;
562;SDS011;266;49.514;8.294;2024-01-30T11:23:14;12.20;;;11.00;;
562;SDS011;266;49.514;8.294;2024-01-30T11:25:43;11.23;;;10.07;;
562;SDS011;266;49.514;8.294;2024-01-30T11:28:14;13.40;;;10.83;;
562;SDS011;266;49.514;8.294;2024-01-30T11:30:43;13.03;;;10.53;;
562;SDS011;266;49.514;8.294;2024-01-30T11:33:13;11.23;;;10.10;;
562;SDS011;266;49.514;8.294;2024-01-30T11:35:42;13.17;;;11.77;;
562;SDS011;266;49.514;8.294;2024-01-30T11:38:13;15.03;;;13.53;;
562;SDS011;266;49.514;8.294;2024-01-30T11:40:43;12.00;;;10.90;;
562;SDS011;266;49.514;8.294;2024-01-30T11:43:11;12.87;;;11.57;;
562;SDS011;266;49.514;8.294;2024-01-30T11:45:41;12.17;;;10.97;;
562;SDS011;266;49.514;8.294;2024-01-30T11:48:11;12.53;;;11.03;;
562;SDS011;266;49.514;8.294;2024-01-30T11:50:39;13.70;;;12.30;;
562;SDS011;266;49.514;8.294;2024-01-30T11:53:08;13.50;;;12.10;;
562;SDS011;266;49.514;8.294;2024-01-30T11:55:40;12.10;;;10.53;;
562;SDS011;266;49.514;8.294;2024-01-30T11:58:08;13.13;;;11.80;;
562;SDS011;266;49.514;8.294;2024-01-30T12:00:38;13.37;;;11.67;;
562;SDS011;266;49.514;8.294;2024-01-30T12:03:09;12.07;;;10.77;;
562;SDS011;266;49.514;8.294;2024-01-30T12:05:39;13.07;;;11.67;;
562;SDS011;266;49.514;8.294;2024-01-30T12:08:14;12.10;;;10.30;;
562;SDS011;266;49.514;8.294;2024-01-30T12:10:42;10.67;;;9.57;;
562;SDS011;266;49.514;8.294;2024-01-30T12:13:11;11.53;;;10.33;;
562;SDS011;266;49.514;8.294;2024-01-30T12:15:40;15.27;;;11.20;;
562;SDS011;266;49.514;8.294;2024-01-30T12:18:11;12.20;;;10.70;;
562;SDS011;266;49.514;8.294;2024-01-30T12:20:40;11.40;;;10.30;;
562;SDS011;266;49.514;8.294;2024-01-30T12:23:11;12.17;;;10.90;;
562;SDS011;266;49.514;8.294;2024-01-30T12:25:40;12.67;;;9.90;;
562;SDS011;266;49.514;8.294;2024-01-30T12:28:09;10.63;;;9.63;;
562;SDS011;266;49.514;8.294;2024-01-30T12:30:38;11.70;;;10.50;;
562;SDS011;266;49.514;8.294;2024-01-30T12:33:09;11.40;;;10.20;;
562;SDS011;266;49.514;8.294;2024-01-30T12:35:38;23.33;;;11.97;;
562;SDS011;266;49.514;8.294;2024-01-30T12:38:20;14.37;;;9.67;;
562;SDS011;266;49.514;8.294;2024-01-30T12:40:52;12.20;;;10.13;;
562;SDS011;266;49.514;8.294;2024-01-30T12:43:21;10.23;;;9.23;;
562;SDS011;266;49.514;8.294;2024-01-30T12:46:03;10.83;;;9.73;;
562;SDS011;266;49.514;8.294;2024-01-30T12:48:32;10.97;;;9.63;;
562;SDS011;266;49.514;8.294;2024-01-30T12:51:02;9.73;;;8.83;;
562;SDS011;266;49.514;8.294;2024-01-30T12:53:30;10.23;;;9.17;;
562;SDS011;266;49.514;8.294;2024-01-30T12:56:02;9.33;;;8.50;;
562;SDS011;266;49.514;8.294;2024-01-30T12:58:30;11.57;;;9.40;;
562;SDS011;266;49.514;8.294;2024-01-30T13:01:00;10.17;;;9.17;;
562;SDS011;266;49.514;8.294;2024-01-30T13:03:29;9.50;;;7.90;;
562;SDS011;266;49.514;8.294;2024-01-30T13:05:59;10.10;;;8.93;;
562;SDS011;266;49.514;8.294;2024-01-30T13:08:28;9.87;;;8.77;;
562;SDS011;266;49.514;8.294;2024-01-30T13:10:56;7.70;;;6.97;;
562;SDS011;266;49.514;8.294;2024-01-30T13:13:24;8.70;;;7.87;;
562;SDS011;266;49.514;8.294;2024-01-30T13:15:52;10.60;;;8.93;;
562;SDS011;266;49.514;8.294;2024-01-30T13:18:21;7.73;;;6.97;;
562;SDS011;266;49.514;8.294;2024-01-30T13:20:49;10.23;;;8.10;;
562;SDS011;266;49.514;8.294;2024-01-30T13:23:17;8.90;;;7.43;;
562;SDS011;266;49.514;8.294;2024-01-30T13:25:46;8.17;;;7.37;;
562;SDS011;266;49.514;8.294;2024-01-30T13:28:14;7.70;;;7.00;;
562;SDS011;266;49.514;8.294;2024-01-30T13:30:42;10.10;;;9.20;;
562;SDS011;266;49.514;8.294;2024-01-30T13:33:10;7.93;;;6.70;;
562;SDS011;266;49.514;8.294;2024-01-30T13:35:38;9.17;;;7.70;;
562;SDS011;266;49.514;8.294;2024-01-30T13:38:06;7.73;;;6.53;;
562;SDS011;266;49.514;8.294;2024-01-30T13:40:34;8.23;;;7.43;;
562;SDS011;266;49.514;8.294;2024-01-30T13:43:04;7.43;;;6.73;;
562;SDS011;266;49.514;8.294;2024-01-30T13:45:32;7.00;;;6.30;;
562;SDS011;266;49.514;8.294;2024-01-30T13:48:00;8.00;;;7.20;;
562;SDS011;266;49.514;8.294;2024-01-30T13:50:29;8.33;;;7.40;;
562;SDS011;266;49.514;8.294;2024-01-30T13:52:59;7.03;;;6.43;;
562;SDS011;266;49.514;8.294;2024-01-30T13:55:27;8.17;;;6.43;;
562;SDS011;266;49.514;8.294;2024-01-30T13:57:55;6.47;;;5.87;;
562;SDS011;266;49.514;8.294;2024-01-30T14:00:25;6.90;;;6.07;;
562;SDS011;266;49.514;8.294;2024-01-30T14:02:53;6.50;;;5.47;;
562;SDS011;266;49.514;8.294;2024-01-30T14:05:22;7.73;;;6.87;;
562;SDS011;266;49.514;8.294;2024-01-30T14:07:51;6.70;;;6.03;;
562;SDS011;266;49.514;8.294;2024-01-30T14:10:19;6.07;;;5.63;;
562;SDS011;266;49.514;8.294;2024-01-30T14:12:47;6.47;;;5.67;;
562;SDS011;266;49.514;8.294;2024-01-30T14:15:15;6.40;;;5.73;;
562;SDS011;266;49.514;8.294;2024-01-30T14:17:56;5.90;;;5.30;;
562;SDS011;266;49.514;8.294;2024-01-30T14:20:25;7.93;;;5.80;;
562;SDS011;266;49.514;8.294;2024-01-30T14:22:54;7.03;;;5.10;;
562;SDS011;266;49.514;8.294;2024-01-30T14:25:23;6.50;;;5.90;;
562;SDS011;266;49.514;8.294;2024-01-30T14:27:51;5.53;;;5.03;;
562;SDS011;266;49.514;8.294;2024-01-30T14:30:19;6.63;;;6.13;;
562;SDS011;266;49.514;8.294;2024-01-30T14:32:47;5.67;;;5.13;;
562;SDS011;266;49.514;8.294;2024-01-30T14:35:17;6.53;;;5.93;;
562;SDS011;266;49.514;8.294;2024-01-30T14:37:46;7.03;;;5.90;;
562;SDS011;266;49.514;8.294;2024-01-30T14:40:14;5.93;;;5.23;;
562;SDS011;266;49.514;8.294;2024-01-30T14:42:42;6.60;;;6.00;;
562;SDS011;266;49.514;8.294;2024-01-30T14:45:11;5.90;;;5.40;;
562;SDS011;266;49.514;8.294;2024-01-30T14:47:39;8.33;;;5.90;;
562;SDS011;266;49.514;8.294;2024-01-30T14:50:08;8.97;;;8.23;;
562;SDS011;266;49.514;8.294;2024-01-30T14:52:37;7.23;;;6.07;;
562;SDS011;266;49.514;8.294;2024-01-30T14:55:06;5.87;;;5.30;;
562;SDS011;266;49.514;8.294;2024-01-30T14:57:35;6.00;;;5.50;;
562;SDS011;266;49.514;8.294;2024-01-30T15:00:05;5.30;;;4.80;;
562;SDS011;266;49.514;8.294;2024-01-30T15:02:33;6.07;;;5.40;;
562;SDS011;266;49.514;8.294;2024-01-30T15:05:02;6.43;;;4.90;;
562;SDS011;266;49.514;8.294;2024-01-30T15:07:31;5.40;;;4.70;;
562;SDS011;266;49.514;8.294;2024-01-30T15:10:07;5.53;;;5.13;;
562;SDS011;266;49.514;8.294;2024-01-30T15:12:37;5.70;;;5.20;;
562;SDS011;266;49.514;8.294;2024-01-30T15:15:06;6.70;;;5.90;;
562;SDS011;266;49.514;8.294;2024-01-30T15:17:37;7.13;;;5.80;;
562;SDS011;266;49.514;8.294;2024-01-30T15:20:06;6.30;;;5.53;;
562;SDS011;266;49.514;8.294;2024-01-30T15:22:35;6.57;;;5.90;;
562;SDS011;266;49.514;8.294;2024-01-30T15:25:04;6.37;;;5.63;;
562;SDS011;266;49.514;8.294;2024-01-30T15:27:34;8.47;;;7.67;;
562;SDS011;266;49.514;8.294;2024-01-30T15:30:02;9.33;;;7.20;;
562;SDS011;266;49.514;8.294;2024-01-30T15:32:31;7.10;;;6.40;;